createdAt,value
2023-04-09T00:00:01.963Z,7.07
2023-04-09T00:02:29.887Z,7.06
2023-04-09T00:04:57.791Z,7.04
2023-04-09T00:07:25.673Z,7.05
2023-04-09T00:09:53.550Z,7.05
2023-04-09T00:12:21.658Z,7.03
2023-04-09T00:14:49.589Z,7.03
2023-04-09T00:17:17.671Z,7.05
2023-04-09T00:19:45.565Z,7.07
2023-04-09T00:22:13.454Z,7.08
2023-04-09T00:24:41.849Z,7.06
2023-04-09T00:27:09.725Z,7.07
2023-04-09T00:29:38.032Z,7.07
2023-04-09T00:32:06.125Z,7.05
2023-04-09T00:34:33.977Z,7.03
2023-04-09T00:37:02.511Z,7.00
2023-04-09T00:39:30.376Z,6.98
2023-04-09T00:42:00.010Z,6.95
2023-04-09T00:44:27.905Z,6.92
2023-04-09T00:46:56.714Z,6.89
2023-04-09T00:49:26.188Z,6.85
2023-04-09T00:51:54.841Z,6.87
2023-04-09T00:54:23.130Z,6.87
2023-04-09T00:56:51.222Z,6.89
2023-04-09T00:59:19.486Z,6.81
2023-04-09T01:01:47.417Z,6.77
2023-04-09T01:04:15.471Z,6.76
2023-04-09T01:06:57.088Z,6.73
2023-04-09T01:09:43.882Z,6.73
2023-04-09T01:12:52.968Z,6.67
2023-04-09T01:15:28.246Z,6.67
2023-04-09T01:18:05.922Z,6.66
2023-04-09T01:20:39.822Z,6.61
2023-04-09T01:23:27.081Z,6.60
2023-04-09T01:26:33.786Z,6.60
2023-04-09T01:29:03.402Z,6.57
2023-04-09T01:31:34.374Z,6.55
2023-04-09T01:34:03.552Z,6.55
2023-04-09T01:36:33.646Z,6.52
2023-04-09T01:39:04.789Z,6.49
2023-04-09T01:41:35.520Z,6.47
2023-04-09T01:44:05.193Z,6.45
2023-04-09T01:46:34.744Z,6.45
2023-04-09T01:49:03.511Z,6.45
2023-04-09T01:51:32.956Z,6.45
2023-04-09T01:54:01.913Z,6.46
2023-04-09T01:56:29.893Z,6.46
2023-04-09T01:58:57.793Z,6.47
2023-04-09T02:01:40.040Z,6.47
2023-04-09T02:04:15.729Z,6.50
2023-04-09T02:07:02.496Z,6.53
2023-04-09T02:09:33.052Z,6.50
2023-04-09T02:12:04.914Z,6.48
2023-04-09T02:14:37.287Z,6.45
2023-04-09T02:17:05.789Z,6.40
2023-04-09T02:19:47.159Z,6.34
2023-04-09T02:22:16.626Z,6.19
2023-04-09T02:24:44.661Z,6.10
2023-04-09T02:27:12.509Z,6.09
2023-04-09T02:29:43.414Z,6.04
2023-04-09T02:32:11.278Z,5.99
2023-04-09T02:34:39.133Z,5.97
2023-04-09T02:37:06.989Z,5.93
2023-04-09T02:39:34.910Z,5.94
2023-04-09T02:42:03.518Z,5.90
2023-04-09T02:44:31.336Z,5.88
2023-04-09T02:46:59.302Z,5.86
2023-04-09T02:49:27.299Z,5.81
2023-04-09T02:51:55.252Z,5.69
2023-04-09T02:54:23.108Z,5.67
2023-04-09T02:56:51.026Z,5.60
2023-04-09T02:59:18.941Z,5.53
2023-04-09T03:01:46.945Z,5.49
2023-04-09T03:04:14.949Z,5.41
2023-04-09T03:06:43.054Z,5.43
2023-04-09T03:09:11.012Z,5.40
2023-04-09T03:11:38.958Z,5.40
2023-04-09T03:14:07.114Z,5.37
2023-04-09T03:16:35.059Z,5.34
2023-04-09T03:19:02.943Z,5.28
2023-04-09T03:21:30.872Z,5.26
2023-04-09T03:23:58.841Z,5.24
2023-04-09T03:26:26.658Z,5.21
2023-04-09T03:28:54.862Z,5.18
2023-04-09T03:31:23.012Z,5.16
2023-04-09T03:33:50.848Z,5.18
2023-04-09T03:36:18.834Z,5.21
2023-04-09T03:38:46.723Z,5.25
2023-04-09T03:41:14.627Z,5.28
2023-04-09T03:43:42.599Z,5.26
2023-04-09T03:46:17.425Z,5.30
2023-04-09T03:48:46.109Z,5.29
2023-04-09T03:51:15.043Z,5.30
2023-04-09T03:53:43.644Z,5.28
2023-04-09T03:56:11.923Z,5.27
2023-04-09T03:58:40.328Z,5.25
2023-04-09T04:01:08.247Z,5.24
2023-04-09T04:03:36.377Z,5.20
2023-04-09T04:06:05.280Z,5.20
2023-04-09T04:08:33.270Z,5.17
2023-04-09T04:11:07.159Z,5.16
2023-04-09T04:13:35.068Z,5.17
2023-04-09T04:16:02.978Z,5.18
2023-04-09T04:18:30.876Z,5.17
2023-04-09T04:20:58.773Z,5.14
2023-04-09T04:23:26.770Z,5.12
2023-04-09T04:25:54.730Z,5.12
2023-04-09T04:28:22.570Z,5.11
2023-04-09T04:30:50.436Z,5.12
2023-04-09T04:33:18.257Z,5.10
2023-04-09T04:35:46.176Z,5.07
2023-04-09T04:38:14.002Z,5.06
2023-04-09T04:40:41.866Z,5.07
2023-04-09T04:43:09.741Z,5.04
2023-04-09T04:45:37.647Z,5.06
2023-04-09T04:48:05.788Z,5.07
2023-04-09T04:50:34.053Z,5.05
2023-04-09T04:53:02.026Z,5.03
2023-04-09T04:55:30.061Z,5.01
2023-04-09T04:57:57.948Z,5.02
2023-04-09T05:00:25.917Z,4.98
2023-04-09T05:02:53.911Z,4.97
2023-04-09T05:05:21.978Z,4.95
2023-04-09T05:07:49.857Z,4.91
2023-04-09T05:10:17.810Z,4.87
2023-04-09T05:12:45.713Z,4.84
2023-04-09T05:15:14.208Z,4.81
2023-04-09T05:17:45.575Z,4.74
2023-04-09T05:20:13.853Z,4.59
2023-04-09T05:22:41.789Z,4.47
2023-04-09T05:25:09.995Z,4.49
2023-04-09T05:27:37.863Z,4.51
2023-04-09T05:30:06.042Z,4.52
2023-04-09T05:32:34.088Z,4.50
2023-04-09T05:35:02.114Z,4.47
2023-04-09T05:37:30.006Z,4.43
2023-04-09T05:39:58.497Z,4.44
2023-04-09T05:42:26.394Z,4.46
2023-04-09T05:44:54.267Z,4.54
2023-04-09T05:47:22.198Z,4.59
2023-04-09T05:49:50.020Z,4.67
2023-04-09T05:52:21.231Z,4.72
2023-04-09T05:54:49.092Z,4.75
2023-04-09T05:57:17.249Z,4.73
2023-04-09T05:59:45.202Z,4.69
2023-04-09T06:02:13.096Z,4.73
2023-04-09T06:04:41.066Z,4.75
2023-04-09T06:07:09.046Z,4.81
2023-04-09T06:09:36.954Z,4.87
2023-04-09T06:12:05.504Z,4.93
2023-04-09T06:14:34.500Z,5.01
2023-04-09T06:17:02.431Z,5.06
2023-04-09T06:19:30.405Z,5.08
2023-04-09T06:21:58.500Z,5.14
2023-04-09T06:24:26.488Z,5.18
2023-04-09T06:26:54.479Z,5.22
2023-04-09T06:29:24.278Z,5.31
2023-04-09T06:31:52.434Z,5.34
2023-04-09T06:34:20.297Z,5.35
2023-04-09T06:36:48.369Z,5.39
2023-04-09T06:39:16.302Z,5.42
2023-04-09T06:41:44.223Z,5.45
2023-04-09T06:44:12.097Z,5.52
2023-04-09T06:46:40.104Z,5.56
2023-04-09T06:49:08.045Z,5.64
2023-04-09T06:51:35.988Z,5.69
2023-04-09T06:54:03.930Z,5.74
2023-04-09T06:56:32.065Z,5.78
2023-04-09T06:58:59.940Z,5.75
2023-04-09T07:01:28.193Z,5.73
2023-04-09T07:03:56.388Z,5.77
2023-04-09T07:06:24.658Z,5.83
2023-04-09T07:08:52.794Z,5.88
2023-04-09T07:11:20.898Z,5.94
2023-04-09T07:13:48.786Z,5.98
2023-04-09T07:16:16.733Z,6.05
2023-04-09T07:18:44.668Z,6.12
2023-04-09T07:21:12.597Z,6.18
2023-04-09T07:23:40.503Z,6.25
2023-04-09T07:26:08.722Z,6.34
2023-04-09T07:28:36.782Z,6.42
2023-04-09T07:31:05.143Z,6.48
2023-04-09T07:33:33.132Z,6.55
2023-04-09T07:36:01.102Z,6.64
2023-04-09T07:38:33.346Z,6.71
2023-04-09T07:41:01.268Z,6.80
2023-04-09T07:43:29.198Z,6.85
2023-04-09T07:45:57.185Z,6.90
2023-04-09T07:48:25.215Z,6.97
2023-04-09T07:50:53.225Z,7.03
2023-04-09T07:53:21.195Z,7.10
2023-04-09T07:55:49.122Z,7.17
2023-04-09T07:58:17.265Z,7.24
2023-04-09T08:00:45.148Z,7.34
2023-04-09T08:03:13.399Z,7.43
2023-04-09T08:05:41.687Z,7.49
2023-04-09T08:08:09.622Z,7.58
2023-04-09T08:10:37.523Z,7.64
2023-04-09T08:13:05.407Z,7.68
2023-04-09T08:15:34.002Z,7.75
2023-04-09T08:18:04.310Z,7.83
2023-04-09T08:20:34.322Z,7.96
2023-04-09T08:23:02.237Z,8.05
2023-04-09T08:25:30.165Z,8.11
2023-04-09T08:27:58.288Z,8.16
2023-04-09T08:30:26.253Z,8.17
2023-04-09T08:32:54.600Z,8.22
2023-04-09T08:35:22.688Z,8.31
2023-04-09T08:37:50.598Z,8.37
2023-04-09T08:40:18.746Z,8.43
2023-04-09T08:42:49.533Z,8.43
2023-04-09T08:45:18.432Z,8.41
2023-04-09T08:47:49.511Z,8.44
2023-04-09T08:50:17.857Z,8.45
2023-04-09T08:52:49.606Z,8.42
2023-04-09T08:55:17.739Z,8.42
2023-04-09T08:57:45.863Z,8.43
2023-04-09T09:00:14.335Z,8.41
2023-04-09T09:03:02.932Z,8.44
2023-04-09T09:05:45.412Z,8.48
2023-04-09T09:08:15.682Z,8.50
2023-04-09T09:10:46.022Z,8.51
2023-04-09T09:13:25.676Z,8.60
2023-04-09T09:15:58.577Z,8.61
2023-04-09T09:18:40.538Z,8.64
2023-04-09T09:21:16.981Z,8.65
2023-04-09T09:23:45.794Z,8.60
2023-04-09T09:26:25.992Z,8.61
2023-04-09T09:28:55.725Z,8.62
2023-04-09T09:31:24.861Z,8.88
2023-04-09T09:33:53.390Z,10.24
2023-04-09T09:36:35.419Z,10.99
2023-04-09T09:39:11.366Z,11.48
2023-04-09T09:41:39.988Z,12.04
2023-04-09T09:44:09.154Z,11.96
2023-04-09T09:46:43.620Z,12.02
2023-04-09T09:49:11.645Z,12.00
2023-04-09T09:51:42.107Z,11.90
2023-04-09T09:54:12.016Z,11.69
2023-04-09T09:56:40.900Z,11.39
2023-04-09T09:59:23.146Z,11.16
2023-04-09T10:02:19.941Z,10.99
2023-04-09T10:04:50.342Z,10.83
2023-04-09T10:07:18.776Z,10.72
2023-04-09T10:09:54.211Z,10.63
2023-04-09T10:12:26.874Z,10.52
2023-04-09T10:14:57.579Z,10.45
2023-04-09T10:17:25.494Z,10.40
2023-04-09T10:20:06.854Z,10.34
2023-04-09T10:22:36.211Z,10.24
2023-04-09T10:25:05.939Z,10.23
2023-04-09T10:27:33.988Z,10.23
2023-04-09T10:30:03.140Z,10.23
2023-04-09T10:32:37.458Z,10.29
2023-04-09T10:35:05.743Z,10.32
2023-04-09T10:37:33.815Z,10.39
2023-04-09T10:40:02.068Z,10.48
2023-04-09T10:42:44.645Z,10.61
2023-04-09T10:45:18.876Z,10.77
2023-04-09T10:47:52.847Z,10.88
2023-04-09T10:50:23.973Z,10.93
2023-04-09T10:53:01.773Z,11.01
2023-04-09T10:55:43.199Z,11.11
2023-04-09T10:58:13.934Z,11.13
2023-04-09T11:00:47.068Z,11.18
2023-04-09T11:03:22.402Z,11.22
2023-04-09T11:05:57.988Z,11.21
2023-04-09T11:08:30.151Z,11.26
2023-04-09T11:10:59.785Z,11.26
2023-04-09T11:13:28.580Z,11.31
2023-04-09T11:15:57.640Z,11.38
2023-04-09T11:18:30.778Z,11.34
2023-04-09T11:21:00.821Z,11.29
2023-04-09T11:23:29.740Z,11.29
2023-04-09T11:25:57.830Z,11.29
2023-04-09T11:28:26.156Z,11.31
2023-04-09T11:30:54.590Z,11.40
2023-04-09T11:33:22.754Z,11.46
2023-04-09T11:35:50.735Z,11.61
2023-04-09T11:38:19.326Z,11.74
2023-04-09T11:40:50.050Z,11.90
2023-04-09T11:43:18.921Z,12.10
2023-04-09T11:45:49.397Z,12.33
2023-04-09T11:48:19.592Z,12.46
2023-04-09T11:50:48.707Z,12.65
2023-04-09T11:53:21.017Z,12.86
2023-04-09T11:55:53.818Z,13.00
2023-04-09T11:58:26.846Z,13.14
2023-04-09T12:01:00.468Z,13.23
2023-04-09T12:03:35.669Z,13.31
2023-04-09T12:06:04.997Z,13.34
2023-04-09T12:08:36.349Z,13.38
2023-04-09T12:11:16.836Z,13.35
2023-04-09T12:13:45.916Z,13.37
2023-04-09T12:16:15.142Z,13.37
2023-04-09T12:18:43.240Z,13.35
2023-04-09T12:21:11.275Z,13.32
2023-04-09T12:23:39.278Z,13.31
2023-04-09T12:26:07.228Z,13.34
2023-04-09T12:28:35.082Z,13.28
2023-04-09T12:31:04.655Z,13.28
2023-04-09T12:33:33.570Z,13.22
2023-04-09T12:36:01.511Z,13.22
2023-04-09T12:38:29.388Z,13.16
2023-04-09T12:40:57.269Z,13.16
2023-04-09T12:43:25.285Z,13.13
2023-04-09T12:45:54.400Z,13.14
2023-04-09T12:48:22.316Z,13.15
2023-04-09T12:50:50.306Z,13.19
2023-04-09T12:53:18.229Z,13.21
2023-04-09T12:55:46.246Z,13.23
2023-04-09T12:58:14.270Z,13.26
2023-04-09T13:00:42.405Z,13.22
2023-04-09T13:03:10.480Z,13.21
2023-04-09T13:05:38.578Z,13.22
2023-04-09T13:08:06.485Z,13.20
2023-04-09T13:10:34.839Z,13.18
2023-04-09T13:13:02.792Z,13.10
2023-04-09T13:15:30.760Z,13.09
2023-04-09T13:17:58.801Z,13.07
2023-04-09T13:20:26.851Z,13.05
2023-04-09T13:22:54.798Z,12.98
2023-04-09T13:25:22.779Z,12.95
2023-04-09T13:27:50.665Z,12.91
2023-04-09T13:30:18.598Z,12.88
2023-04-09T13:32:47.281Z,12.84
2023-04-09T13:35:15.378Z,12.82
2023-04-09T13:37:43.657Z,12.77
2023-04-09T13:40:11.993Z,12.73
2023-04-09T13:42:39.878Z,12.73
2023-04-09T13:45:08.383Z,12.75
2023-04-09T13:47:36.471Z,12.73
2023-04-09T13:50:04.756Z,12.68
2023-04-09T13:52:33.501Z,12.64
2023-04-09T13:55:01.522Z,12.63
2023-04-09T13:57:29.534Z,12.63
2023-04-09T13:59:57.472Z,12.63
2023-04-09T14:02:25.970Z,12.63
2023-04-09T14:04:54.032Z,12.62
2023-04-09T14:07:22.382Z,12.62
2023-04-09T14:09:52.455Z,12.60
2023-04-09T14:12:20.441Z,12.60
2023-04-09T14:14:48.360Z,12.58
2023-04-09T14:17:16.393Z,12.64
2023-04-09T14:19:44.306Z,12.68
2023-04-09T14:22:12.935Z,12.70
2023-04-09T14:24:43.768Z,12.76
2023-04-09T14:27:11.712Z,12.79
2023-04-09T14:29:39.588Z,12.83
2023-04-09T14:32:07.590Z,12.87
2023-04-09T14:34:35.713Z,12.96
2023-04-09T14:37:04.000Z,13.03
2023-04-09T14:39:32.298Z,12.99
2023-04-09T14:42:00.215Z,12.94
2023-04-09T14:44:28.499Z,12.91
2023-04-09T14:46:57.420Z,12.93
2023-04-09T14:49:25.625Z,12.94
2023-04-09T14:51:53.737Z,12.95
2023-04-09T14:54:21.692Z,12.98
2023-04-09T14:56:49.709Z,12.97
2023-04-09T14:59:17.756Z,12.98
2023-04-09T15:01:45.809Z,12.96
2023-04-09T15:04:13.845Z,12.92
2023-04-09T15:06:42.208Z,12.87
2023-04-09T15:09:10.405Z,12.87
2023-04-09T15:11:38.342Z,12.90
2023-04-09T15:14:06.223Z,12.94
2023-04-09T15:16:35.409Z,12.96
2023-04-09T15:19:04.086Z,12.99
2023-04-09T15:21:33.007Z,13.01
2023-04-09T15:24:01.588Z,13.02
2023-04-09T15:26:29.623Z,13.03
2023-04-09T15:29:04.867Z,13.03
2023-04-09T15:31:34.242Z,13.04
2023-04-09T15:34:02.327Z,13.06
2023-04-09T15:36:31.318Z,13.05
2023-04-09T15:38:59.750Z,13.07
2023-04-09T15:41:28.197Z,13.11
2023-04-09T15:43:56.177Z,13.16
2023-04-09T15:46:24.332Z,13.22
2023-04-09T15:48:52.753Z,13.25
2023-04-09T15:51:22.068Z,13.34
2023-04-09T15:53:50.081Z,13.41
2023-04-09T15:56:18.265Z,13.43
2023-04-09T15:58:46.230Z,13.49
2023-04-09T16:01:14.418Z,13.51
2023-04-09T16:03:42.764Z,13.53
2023-04-09T16:06:14.453Z,13.56
2023-04-09T16:08:42.550Z,13.57
2023-04-09T16:11:10.916Z,13.59
2023-04-09T16:13:38.882Z,13.62
2023-04-09T16:16:08.227Z,13.65
2023-04-09T16:18:36.836Z,13.67
2023-04-09T16:21:05.692Z,13.67
2023-04-09T16:23:34.421Z,13.71
2023-04-09T16:26:02.420Z,13.72
2023-04-09T16:28:30.372Z,13.72
2023-04-09T16:30:58.407Z,13.75
2023-04-09T16:33:26.330Z,13.77
2023-04-09T16:35:54.343Z,13.75
2023-04-09T16:38:22.424Z,13.75
2023-04-09T16:40:50.373Z,13.72
2023-04-09T16:43:18.348Z,13.72
2023-04-09T16:45:46.307Z,13.73
2023-04-09T16:48:14.739Z,13.71
2023-04-09T16:50:42.870Z,13.66
2023-04-09T16:53:10.930Z,13.62
2023-04-09T16:55:38.962Z,13.54
2023-04-09T16:58:06.920Z,13.48
2023-04-09T17:00:36.769Z,13.42
2023-04-09T17:03:05.255Z,13.37
2023-04-09T17:05:33.356Z,13.28
2023-04-09T17:08:01.528Z,13.24
2023-04-09T17:10:29.494Z,13.18
2023-04-09T17:12:57.672Z,13.14
2023-04-09T17:15:26.507Z,13.08
2023-04-09T17:17:54.974Z,12.98
2023-04-09T17:20:23.906Z,12.93
2023-04-09T17:22:51.843Z,12.87
2023-04-09T17:25:20.491Z,12.83
2023-04-09T17:27:48.602Z,12.76
2023-04-09T17:30:16.886Z,12.67
2023-04-09T17:32:45.522Z,12.59
2023-04-09T17:35:13.568Z,12.54
2023-04-09T17:37:41.645Z,12.48
2023-04-09T17:40:10.319Z,12.39
2023-04-09T17:42:38.231Z,12.33
2023-04-09T17:45:07.013Z,12.27
2023-04-09T17:47:35.035Z,12.20
2023-04-09T17:50:03.144Z,12.11
2023-04-09T17:52:37.833Z,12.05
2023-04-09T17:55:13.683Z,12.00
2023-04-09T17:57:42.991Z,11.93
2023-04-09T18:00:12.433Z,11.85
2023-04-09T18:02:40.732Z,11.79
2023-04-09T18:05:09.405Z,11.73
2023-04-09T18:07:37.378Z,11.64
2023-04-09T18:10:06.041Z,11.58
2023-04-09T18:12:34.071Z,11.52
2023-04-09T18:15:02.078Z,11.44
2023-04-09T18:17:30.124Z,11.40
2023-04-09T18:19:59.504Z,11.33
2023-04-09T18:22:28.730Z,11.27
2023-04-09T18:24:57.884Z,11.21
2023-04-09T18:27:25.867Z,11.15
2023-04-09T18:29:53.792Z,11.09
2023-04-09T18:32:21.629Z,11.02
2023-04-09T18:34:49.875Z,10.96
2023-04-09T18:37:17.843Z,10.88
2023-04-09T18:39:46.271Z,10.84
2023-04-09T18:42:15.072Z,10.77
2023-04-09T18:44:43.568Z,10.72
2023-04-09T18:47:12.464Z,10.66
2023-04-09T18:49:40.437Z,10.60
2023-04-09T18:52:10.352Z,10.54
2023-04-09T18:54:38.613Z,10.48
2023-04-09T18:57:06.962Z,10.43
2023-04-09T18:59:36.166Z,10.39
2023-04-09T19:02:06.446Z,10.33
2023-04-09T19:04:40.699Z,10.29
2023-04-09T19:07:09.093Z,10.25
2023-04-09T19:09:38.571Z,10.21
2023-04-09T19:12:06.742Z,10.15
2023-04-09T19:14:34.721Z,10.11
2023-04-09T19:17:03.752Z,10.05
2023-04-09T19:19:31.656Z,10.00
2023-04-09T19:22:00.213Z,9.94
2023-04-09T19:24:28.169Z,9.89
2023-04-09T19:26:57.941Z,9.85
2023-04-09T19:29:25.984Z,9.80
2023-04-09T19:31:53.930Z,9.76
2023-04-09T19:34:21.900Z,9.70
2023-04-09T19:36:49.778Z,9.66
2023-04-09T19:39:17.747Z,9.61
2023-04-09T19:41:45.692Z,9.57
2023-04-09T19:44:13.574Z,9.53
2023-04-09T19:46:41.594Z,9.48
2023-04-09T19:49:09.483Z,9.44
2023-04-09T19:51:37.394Z,9.39
2023-04-09T19:54:05.487Z,9.32
2023-04-09T19:56:34.195Z,9.29
2023-04-09T19:59:02.157Z,9.26
2023-04-09T20:01:30.234Z,9.19
2023-04-09T20:03:58.746Z,9.16
2023-04-09T20:06:27.410Z,9.10
2023-04-09T20:08:55.943Z,9.04
2023-04-09T20:11:23.810Z,9.00
2023-04-09T20:13:51.806Z,8.96
2023-04-09T20:16:20.083Z,8.94
2023-04-09T20:18:48.694Z,8.89
2023-04-09T20:21:16.880Z,8.86
2023-04-09T20:23:46.493Z,8.77
2023-04-09T20:26:14.952Z,8.73
2023-04-09T20:28:43.008Z,8.72
2023-04-09T20:31:10.975Z,8.69
2023-04-09T20:33:38.908Z,8.65
2023-04-09T20:36:15.900Z,8.61
2023-04-09T20:38:44.053Z,8.59
2023-04-09T20:41:11.991Z,8.54
2023-04-09T20:43:40.064Z,8.48
2023-04-09T20:46:08.095Z,8.46
2023-04-09T20:48:35.948Z,8.43
2023-04-09T20:51:10.359Z,8.40
2023-04-09T20:53:39.351Z,8.39
2023-04-09T20:56:07.590Z,8.36
2023-04-09T20:58:35.455Z,8.36
2023-04-09T21:01:08.642Z,8.32
2023-04-09T21:03:41.364Z,8.29
2023-04-09T21:06:10.009Z,8.28
2023-04-09T21:08:38.689Z,8.23
2023-04-09T21:11:06.951Z,8.19
2023-04-09T21:13:46.829Z,8.17
2023-04-09T21:16:22.355Z,8.14
2023-04-09T21:18:55.408Z,8.12
2023-04-09T21:21:23.720Z,8.10
2023-04-09T21:23:51.684Z,8.08
2023-04-09T21:26:19.661Z,8.07
2023-04-09T21:28:49.434Z,8.05
2023-04-09T21:31:17.694Z,8.01
2023-04-09T21:33:45.699Z,8.01
2023-04-09T21:36:13.791Z,7.99
2023-04-09T21:38:41.708Z,7.93
2023-04-09T21:41:09.932Z,7.86
2023-04-09T21:43:39.782Z,7.85
2023-04-09T21:46:08.061Z,7.79
2023-04-09T21:48:36.039Z,7.75
2023-04-09T21:51:04.057Z,7.77
2023-04-09T21:53:32.713Z,7.76
2023-04-09T21:56:01.814Z,7.72
2023-04-09T21:58:32.288Z,7.69
2023-04-09T22:01:00.307Z,7.66
2023-04-09T22:03:29.084Z,7.63
2023-04-09T22:05:57.145Z,7.59
2023-04-09T22:08:25.742Z,7.56
2023-04-09T22:10:53.690Z,7.52
2023-04-09T22:13:21.785Z,7.46
2023-04-09T22:15:49.840Z,7.44
2023-04-09T22:18:17.753Z,7.40
2023-04-09T22:20:45.624Z,7.38
2023-04-09T22:23:13.635Z,7.36
2023-04-09T22:25:41.481Z,7.33
2023-04-09T22:28:09.480Z,7.31
2023-04-09T22:30:37.329Z,7.30
2023-04-09T22:33:05.375Z,7.29
2023-04-09T22:35:34.246Z,7.25
2023-04-09T22:38:02.346Z,7.23
2023-04-09T22:40:30.327Z,7.24
2023-04-09T22:42:58.244Z,7.22
2023-04-09T22:45:29.154Z,7.20
2023-04-09T22:47:58.264Z,7.16
2023-04-09T22:50:29.873Z,7.14
2023-04-09T22:52:57.923Z,7.14
2023-04-09T22:55:25.793Z,7.11
2023-04-09T22:57:53.712Z,7.06
2023-04-09T23:00:21.982Z,6.97
2023-04-09T23:02:52.074Z,6.90
2023-04-09T23:05:20.099Z,6.84
2023-04-09T23:07:48.228Z,6.81
2023-04-09T23:10:18.586Z,6.78
2023-04-09T23:12:46.554Z,6.77
2023-04-09T23:15:14.652Z,6.77
2023-04-09T23:17:43.022Z,6.72
2023-04-09T23:20:12.649Z,6.67
2023-04-09T23:22:40.437Z,6.61
2023-04-09T23:25:08.584Z,6.55
2023-04-09T23:27:36.572Z,6.51
2023-04-09T23:30:04.585Z,6.47
2023-04-09T23:32:32.533Z,6.47
2023-04-09T23:35:02.472Z,6.44
2023-04-09T23:37:30.353Z,6.42
2023-04-09T23:39:58.216Z,6.42
2023-04-09T23:42:27.503Z,6.41
2023-04-09T23:44:55.412Z,6.38
2023-04-09T23:47:23.504Z,6.31
2023-04-09T23:49:51.339Z,6.27
2023-04-09T23:52:19.193Z,6.25
2023-04-09T23:54:53.113Z,6.24
2023-04-09T23:57:21.072Z,6.22
2023-04-09T23:59:49.198Z,6.23
